Latest Weather Observations for Oakey

IDQ60801

Issued at 12:02 am EST Saturday 7 March 2015 (issued every 30 minutes, with the page automatically refreshed every 10 minutes)

About weather observations | Map of weather stations | Latest weather observations for QLD | Other Formats
Station Details ID: 041359 Name: OAKEY AERO Lat: -27.40 Lon: 151.74 Height: 405.69 m
Data from the previous 72 hours. | See also: Recent months at Oakey
Date/Time
EST
Temp
°C
App
Temp
°C
Dew
Point
Rel
Hum
%
Delta-T
°C
Wind Press
QNH
hPa
Press
MSL
hPa
Rain
since 9 am
mm
Dir
 
Spd
km/h
Gust
km/h
Spd
kts
Gust
kts
06/03:00pm 30.4 28.4 11.4 31 11.2 W 13 19 7 10 1006.9 1005.0 0.0
06/02:30pm 29.7 28.7 12.2 34 10.4 ESE 9 17 5 9 1007.3 - 0.0
06/02:00pm 28.9 28.4 12.8 37 9.6 NNW 7 11 4 6 1008.0 - 0.0
06/01:30pm 29.9 29.2 13.2 36 10.1 N 9 22 5 12 1008.7 - 0.0
06/01:00pm 28.9 28.2 13.2 38 9.5 WSW 9 15 5 8 1009.2 - 0.0
06/12:30pm 28.5 27.9 14.7 43 8.5 ENE 11 19 6 10 1009.8 - 0.0
06/12:00pm 28.2 27.0 14.1 42 8.6 N 13 20 7 11 1010.1 1008.2 0.0
06/11:30am 26.9 25.7 14.0 45 7.8 NNE 13 20 7 11 1010.7 - 0.0
06/11:00am 26.5 26.2 15.5 50 6.8 NNE 11 19 6 10 1011.3 - 0.0
06/10:00am 25.4 23.6 16.0 56 5.8 NE 20 28 11 15 1011.7 - 0.0
06/09:30am 23.8 22.1 16.3 63 4.7 ENE 20 26 11 14 1011.4 - 0.0
06/09:00am 23.7 21.4 16.7 65 4.4 ENE 24 30 13 16 1011.3 1009.4 0.0
06/08:36am 23.2 20.3 16.0 64 4.4 ENE 26 35 14 19 1011.3 - 0.0
06/07:30am 21.6 18.6 15.9 70 3.5 NE 26 33 14 18 1011.0 - 0.0
06/06:30am 20.4 20.0 16.2 77 2.6 ENE 13 17 7 9 1010.3 - 0.0
06/06:00am 20.0 19.2 16.2 79 2.3 NE 15 19 8 10 1009.9 1008.0 0.0
06/05:30am 19.6 18.7 15.9 79 2.2 NE 15 20 8 11 1009.9 - 0.0
06/05:00am 19.6 18.6 15.7 78 2.4 NE 15 19 8 10 1009.8 - 0.0
06/04:30am 19.9 18.9 15.7 77 2.5 NE 15 22 8 12 1009.5 - 0.0
06/04:00am 20.2 19.7 15.8 76 2.7 NE 13 17 7 9 1009.6 - 0.0
06/03:30am 20.2 18.8 15.6 75 2.8 ENE 17 24 9 13 1009.6 - 0.0
06/03:00am 18.2 18.2 14.1 77 2.4 SSE 7 13 4 7 1009.6 1007.7 0.0
06/02:30am 15.8 14.8 10.3 70 3.0 NNE 6 9 3 5 1009.6 - 0.0
06/02:00am 15.8 14.9 10.8 72 2.7 NNE 6 11 3 6 1009.6 - 0.0
06/01:30am 16.1 16.2 10.2 68 3.2 CALM 0 0 0 0 1009.7 - 0.0
06/01:00am 15.6 15.2 9.7 68 3.1 NE 2 6 1 3 1009.8 - 0.0
06/12:30am 16.0 16.0 9.9 67 3.3 CALM 0 0 0 0 1009.7 - 0.0
06/12:00am 15.7 14.4 9.8 68 3.1 NNE 7 9 4 5 1010.0 1008.1 0.0
 
Date/Time
EST
Temp
°C
App
Temp
°C
Dew
Point
Rel
Hum
%
Delta-T
°C
Wind Press
QNH
hPa
Press
MSL
hPa
Rain
since 9 am
mm
Dir
 
Spd
km/h
Gust
km/h
Spd
kts
Gust
kts
05/11:30pm 16.0 14.2 9.4 65 3.5 NNW 9 11 5 6 1009.9 - 0.0
05/11:00pm 16.9 15.6 9.8 63 3.8 N 7 9 4 5 1009.9 - 0.0
05/10:30pm 17.6 16.4 7.9 53 5.0 W 4 7 2 4 1009.6 - 0.0
05/10:00pm 19.7 17.7 7.1 44 6.5 WNW 7 11 4 6 1009.6 - 0.0
05/09:30pm 20.8 18.1 5.6 37 7.7 W 9 13 5 7 1009.8 - 0.0
05/09:00pm 25.5 21.0 4.0 25 10.9 SW 17 19 9 10 1009.4 1007.5 0.0
05/08:30pm 26.8 21.9 5.1 25 11.3 SW 20 24 11 13 1009.1 - 0.0
05/08:00pm 26.2 22.7 7.3 30 10.2 WSW 15 20 8 11 1008.8 - 0.0
05/07:30pm 28.2 24.1 8.0 28 11.1 SW 19 22 10 12 1008.5 - 0.0
05/07:00pm 29.4 24.9 8.5 27 11.7 SW 22 30 12 16 1008.2 - 0.0
05/06:30pm 30.3 26.0 9.2 27 12.0 SW 22 32 12 17 1007.7 - 0.0
05/06:00pm 31.6 27.6 9.2 25 12.8 SW 20 35 11 19 1007.3 1005.4 0.0
05/05:30pm 32.7 27.0 8.2 22 13.9 SW 28 44 15 24 1007.0 - 0.0
05/05:00pm 33.6 26.9 8.3 21 14.4 SW 33 46 18 25 1006.7 - 0.0
05/04:30pm 34.5 27.5 8.3 20 15.0 WSW 35 46 19 25 1006.4 - 0.0
05/04:00pm 35.1 28.9 9.5 21 14.9 WSW 32 41 17 22 1006.2 - 0.0
05/03:30pm 35.3 28.4 8.9 20 15.3 WSW 35 50 19 27 1006.3 - 0.0
05/03:07pm 35.3 29.4 8.9 20 15.3 WSW 30 50 16 27 1006.4 - 0.0
05/03:02pm 35.9 30.5 9.4 20 15.5 WSW 28 50 15 27 1006.4 - 0.0
05/03:00pm 35.2 29.6 8.9 20 15.3 WSW 28 43 15 23 1006.4 1004.4 0.0
05/02:48pm 35.3 29.6 9.7 21 15.0 WSW 30 48 16 26 1006.5 - 0.0
05/02:43pm 35.7 30.2 9.3 20 15.4 W 28 48 15 26 1006.5 - 0.0
05/02:30pm 35.6 29.7 9.2 20 15.4 SW 30 37 16 20 1006.7 - 0.0
05/02:00pm 35.2 30.2 10.9 23 14.5 WSW 28 43 15 23 1007.3 - 0.0
05/01:37pm 34.9 29.3 10.0 22 14.6 WSW 30 48 16 26 1007.6 - 0.0
05/01:30pm 35.3 30.7 12.3 25 14.0 WSW 28 43 15 23 1007.7 - 0.0
05/01:00pm 35.0 30.5 12.6 26 13.7 WSW 28 41 15 22 1008.1 - 0.0
05/12:30pm 34.8 31.0 15.7 32 12.2 W 30 39 16 21 1008.6 - 0.0
05/12:00pm 34.3 31.4 16.2 34 11.6 W 26 39 14 21 1008.9 1006.9 0.0
05/11:30am 33.1 30.0 15.6 35 11.1 W 26 35 14 19 1009.4 - 0.0
05/11:00am 32.7 29.3 15.7 36 10.8 WNW 28 39 15 21 1009.9 - 0.0
05/10:30am 31.9 28.5 15.8 38 10.2 WNW 28 39 15 21 1010.2 - 0.0
05/10:00am 30.8 27.8 16.8 43 9.0 NW 28 39 15 21 1010.7 - 0.0
05/09:30am 30.0 27.3 17.5 47 8.1 NW 28 35 15 19 1011.1 - 0.0
05/09:00am 28.8 26.8 17.3 49 7.4 NW 24 35 13 19 1011.3 1009.4 0.0
05/08:30am 27.0 25.0 18.3 59 5.6 NW 26 35 14 19 1011.5 - 0.0
05/08:00am 25.4 26.2 18.1 64 4.7 NW 11 17 6 9 1011.6 - 0.0
05/07:30am 23.3 25.4 17.3 69 3.8 SE 2 7 1 4 1011.5 - 0.0
05/07:00am 21.4 22.8 17.4 78 2.5 S 6 7 3 4 1011.5 - 0.0
05/06:30am 19.6 20.8 16.8 84 1.7 SE 6 7 3 4 1011.1 - 0.0
05/06:00am 18.3 20.3 15.9 86 1.4 CALM 0 0 0 0 1010.8 1008.8 0.0
05/05:30am 18.5 19.4 16.1 86 1.5 ENE 6 7 3 4 1010.5 - 0.0
05/05:00am 18.4 18.8 16.2 87 1.3 ENE 9 9 5 5 1010.1 - 0.0
05/04:30am 18.6 19.3 16.2 86 1.5 ENE 7 7 4 4 1010.2 - 0.0
05/04:00am 19.3 21.3 16.0 81 2.0 CALM 0 0 0 0 1010.2 - 0.0
05/03:30am 20.0 22.0 16.0 78 2.4 CALM 0 0 0 0 1010.2 - 0.0
05/03:00am 20.1 22.2 16.3 79 2.3 CALM 0 0 0 0 1010.2 1008.3 0.0
05/02:30am 20.1 20.5 16.3 79 2.3 ENE 9 11 5 6 1010.6 - 0.0
05/02:00am 20.5 20.6 16.5 78 2.5 E 11 13 6 7 1010.8 - 0.0
05/01:30am 20.6 20.7 16.6 78 2.5 ENE 11 13 6 7 1011.2 - 0.0
05/01:00am 21.1 21.5 16.3 74 2.9 E 9 11 5 6 1011.4 - 0.0
05/12:30am 21.3 21.8 16.5 74 3.0 ENE 9 11 5 6 1011.9 - 0.0
05/12:00am 22.3 21.9 16.3 69 3.7 ENE 13 13 7 7 1012.0 1010.1 0.0
 
Date/Time
EST
Temp
°C
App
Temp
°C
Dew
Point
Rel
Hum
%
Delta-T
°C
Wind Press
QNH
hPa
Press
MSL
hPa
Rain
since 9 am
mm
Dir
 
Spd
km/h
Gust
km/h
Spd
kts
Gust
kts
04/11:30pm 21.8 22.0 16.7 73 3.2 ENE 11 13 6 7 1012.2 - 0.0
04/11:00pm 22.4 22.3 16.9 71 3.4 ENE 13 15 7 8 1012.4 - 0.0
04/10:30pm 22.9 22.8 16.9 69 3.7 ENE 13 17 7 9 1012.7 - 0.0
04/10:00pm 23.1 23.4 17.1 69 3.8 ENE 11 13 6 7 1013.1 - 0.0
04/09:30pm 23.8 24.1 17.1 66 4.2 ENE 11 15 6 8 1013.2 - 0.0
04/09:00pm 24.0 23.9 17.0 65 4.4 ENE 13 17 7 9 1013.4 1011.4 0.0
04/08:30pm 24.9 24.7 17.6 64 4.6 ENE 15 17 8 9 1013.3 - 0.0
04/08:00pm 25.5 26.3 17.4 61 5.1 ENE 9 11 5 6 1013.1 - 0.0
04/07:30pm 27.0 27.3 17.8 57 5.9 ENE 13 19 7 10 1012.8 - 0.0
04/07:00pm 27.8 27.7 17.9 54 6.4 ENE 15 17 8 9 1012.5 - 0.0
04/06:30pm 28.7 30.0 17.6 51 7.1 ENE 7 11 4 6 1012.2 - 0.0
04/06:00pm 30.7 29.2 15.2 39 9.7 ENE 17 22 9 12 1011.8 1009.9 0.0
04/05:30pm 32.0 30.6 14.6 34 10.8 ENE 15 20 8 11 1011.6 - 0.0
04/05:00pm 32.7 31.4 13.8 31 11.7 ENE 13 17 7 9 1011.6 - 0.0
04/04:30pm 33.3 33.4 14.4 32 11.8 NNE 7 17 4 9 1011.5 - 0.0
04/04:00pm 32.9 31.5 13.5 30 11.9 ENE 13 20 7 11 1011.5 - 0.0
04/03:30pm 33.3 32.8 13.9 31 12.0 NNE 9 20 5 11 1011.6 - 0.0
04/03:00pm 33.3 32.7 13.4 30 12.2 ESE 9 20 5 11 1011.8 1009.9 0.0
04/02:30pm 33.4 33.5 14.0 31 12.0 NNW 6 13 3 7 1012.2 - 0.0
04/02:00pm 32.9 32.5 14.0 32 11.7 E 9 19 5 10 1012.5 - 0.0
04/01:30pm 33.2 33.6 15.2 33 11.3 W 7 17 4 9 1012.9 - 0.0
04/01:00pm 32.0 32.0 15.1 36 10.6 N 9 13 5 7 1013.5 - 0.0
04/12:30pm 31.6 31.8 14.7 36 10.5 SSE 7 11 4 6 1014.0 - 0.0
04/12:00pm 30.6 30.5 13.8 35 10.3 ENE 7 11 4 6 1014.4 1012.5 0.0
04/11:30am 29.8 29.6 14.7 39 9.3 SSE 9 15 5 8 1015.0 - 0.0
04/11:00am 29.3 30.6 17.5 49 7.6 W 7 17 4 9 1015.4 - 0.0
04/10:30am 28.3 29.5 16.9 50 7.2 ENE 6 13 3 7 1015.9 - 0.0
04/10:00am 26.9 27.4 17.4 56 6.1 NNE 11 13 6 7 1016.2 - 0.0
04/09:30am 25.5 26.6 17.2 60 5.3 NE 7 11 4 6 1016.3 - 0.0
04/09:00am 24.4 25.5 17.9 67 4.1 NNE 9 13 5 7 1016.2 1014.3 0.0
04/08:30am 23.2 24.0 17.4 70 3.7 NE 9 17 5 9 1016.4 - 0.0
04/08:00am 22.3 22.9 17.7 75 2.9 ENE 11 17 6 9 1016.4 - 0.0
04/07:30am 21.5 22.5 17.7 79 2.4 E 9 11 5 6 1016.2 - 0.0
04/07:00am 20.7 21.7 17.7 83 1.9 ENE 9 13 5 7 1015.9 - 0.0
04/06:30am 19.4 20.5 17.9 91 0.9 E 9 11 5 6 1015.3 - 0.0
04/06:00am 18.1 18.8 17.1 94 0.6 ENE 9 13 5 7 1015.0 1013.1 0.0
04/05:30am 17.6 17.8 15.8 89 1.1 ESE 9 11 5 6 1014.8 - 0.0
04/05:00am 18.7 17.8 17.7 94 0.6 ENE 19 24 10 13 1014.5 - 0.0
04/04:30am 17.7 17.8 16.4 92 0.8 ENE 11 13 6 7 1014.2 - 0.0
04/04:00am 17.9 18.9 16.4 91 0.9 E 6 9 3 5 1014.3 - 0.0
04/03:30am 18.1 18.6 16.6 91 0.9 SE 9 11 5 6 1014.4 - 0.0
04/03:00am 18.7 18.2 16.8 89 1.2 ENE 15 20 8 11 1014.5 1012.6 0.0
04/02:30am 18.7 18.6 17.0 90 1.0 ENE 13 17 7 9 1014.6 - 0.0
04/02:00am 19.1 18.7 17.1 88 1.2 ENE 15 17 8 9 1015.1 - 0.0
04/01:30am 19.3 19.0 17.3 88 1.2 ENE 15 19 8 10 1015.5 - 0.0
04/01:00am 19.5 19.5 17.3 87 1.4 ENE 13 15 7 8 1016.3 - 0.0
04/12:30am 19.7 20.0 17.1 85 1.6 ENE 11 13 6 7 1016.6 - 0.0

Other Formats:

Comma delimited format used in spreadsheet applications
http://www.bom.gov.au/fwo/IDQ60801/IDQ60801.94552.axf

JavaScript Object Notation format (JSON) in row-major order
http://www.bom.gov.au/fwo/IDQ60801/IDQ60801.94552.json